Date,TemperatureHighF,TemperatureAvgF,TemperatureLowF,DewpointHighF,DewpointAvgF,DewpointLowF,HumidityHigh,HumidityAvg,HumidityLow,PressureMaxIn,PressureMinIn,WindSpeedMaxMPH,WindSpeedAvgMPH,GustSpeedMaxMPH,PrecipitationSumIn
2013-5-1,76,64,50,63,54,38,76,68,56,29.55,29.17,16,4,16,0.00
2013-5-2,67,50,38,50,40,32,77,68,51,29.57,29.40,13,2,13,0.00
2013-5-3,72,56,37,53,43,30,77,63,44,29.48,29.32,17,3,17,0.00
2013-5-4,66,59,53,51,44,41,70,59,50,29.40,29.37,6,2,6,0.00
2013-5-5,62,60,59,37,37,36,43,41,40,29.36,29.35,2,0,5,0.00
2013-5-6,76,60,43,46,40,35,75,49,28,29.38,29.27,15,2,15,0.00
2013-5-7,81,60,42,46,39,33,74,49,26,29.39,29.28,13,2,13,0.00
2013-5-8,80,64,46,49,41,34,74,46,28,29.32,29.25,8,1,8,0.00
2013-5-9,77,58,44,51,43,37,76,60,40,29.31,29.21,14,2,14,0.03
2013-5-10,48,41,37,40,32,28,76,70,66,29.31,29.21,21,5,21,0.70
2013-5-11,50,38,33,40,29,23,76,68,62,29.21,28.97,13,2,13,0.22
2013-5-12,39,36,32,29,26,23,73,67,60,29.32,28.95,26,6,26,0.08
2013-5-13,51,41,29,32,26,22,77,58,36,29.42,29.30,13,2,13,0.00
2013-5-14,72,55,40,47,38,27,76,54,40,29.30,28.91,13,3,13,0.03
2013-5-15,75,61,50,50,46,40,75,59,35,29.07,28.73,17,4,17,0.00
2013-5-16,64,53,41,44,40,34,77,62,45,29.37,29.03,14,2,14,0.00
2013-5-17,70,54,37,48,40,29,76,60,42,29.47,29.36,11,2,11,0.00
2013-5-18,57,52,48,48,42,38,75,68,58,29.47,29.44,7,2,7,0.00
2013-5-19,84,76,68,64,60,55,64,56,50,29.24,29.11,11,3,11,0.00
2013-5-20,80,69,61,67,56,47,74,64,54,29.14,29.14,12,3,12,0.57
2013-5-21,64,59,56,48,44,41,59,57,55,29.14,29.14,9,2,9,0.17
2013-5-27,74,66,58,39,36,32,41,32,26,29.14,29.14,11,4,11,0.00
2013-5-28,58,55,50,48,42,35,75,62,42,29.14,29.14,9,2,9,0.76
2013-5-29,69,62,57,56,48,42,64,60,56,29.14,29.14,8,1,8,0.00
2013-5-30,91,72,56,72,58,41,73,62,48,29.14,29.14,19,2,19,0.19
2013-5-31,84,71,64,66,56,48,74,60,48,29.14,29.14,17,2,17,0.32